Time;durP1;ratioP1;P1;durP2;ratioP2;P2;SDS_P1;SDS_P2;PMS_P1;PMS_P2;Temp;Humidity;BMP_temperature;BMP_pressure;BME280_temperature;BME280_humidity;BME280_pressure;Samples;Min_cycle;Max_cycle;Signal;HPM_P1;HPM_P2
2022/07/01 00:00:14;;;;;;;3.10;1.40;;;17.40;32.10;;;;;;5052548;28;20179;-69
2022/07/01 00:02:40;;;;;;;2.20;1.70;;;17.40;32.30;;;;;;5053877;28;20213;-69
2022/07/01 00:05:06;;;;;;;2.80;1.60;;;17.40;32.80;;;;;;5053958;28;20218;-69
2022/07/01 00:07:32;;;;;;;1.90;1.20;;;17.40;33.20;;;;;;5052988;28;20425;-69
2022/07/01 00:09:57;;;;;;;2.30;1.33;;;17.40;32.90;;;;;;5053391;28;20228;-70
2022/07/01 00:12:23;;;;;;;2.30;1.27;;;17.30;33.80;;;;;;5053858;28;20206;-70
2022/07/01 00:14:48;;;;;;;3.13;1.03;;;17.30;33.70;;;;;;5054044;28;20615;-71
2022/07/01 00:17:14;;;;;;;3.73;1.83;;;17.20;34.20;;;;;;5054247;28;20171;-71
2022/07/01 00:19:40;;;;;;;2.13;1.27;;;17.20;34.50;;;;;;5053335;28;20245;-71
2022/07/01 00:22:05;;;;;;;3.77;2.17;;;17.00;35.40;;;;;;5052756;28;20568;-71
2022/07/01 00:24:31;;;;;;;2.40;1.97;;;17.10;34.60;;;;;;5052666;28;20264;-70
2022/07/01 00:26:56;;;;;;;2.93;1.67;;;17.10;34.80;;;;;;5054286;28;20290;-70
2022/07/01 00:29:22;;;;;;;2.27;1.50;;;17.10;34.60;;;;;;5052048;28;20190;-70
2022/07/01 00:31:47;;;;;;;2.70;1.07;;;17.20;34.60;;;;;;5053688;28;20665;-69
2022/07/01 00:34:13;;;;;;;2.40;1.50;;;17.10;35.20;;;;;;5053540;28;20203;-69
2022/07/01 00:36:38;;;;;;;2.17;1.53;;;17.10;34.50;;;;;;5053737;28;20179;-69
2022/07/01 00:39:04;;;;;;;1.70;1.03;;;17.10;34.20;;;;;;5053243;28;20184;-70
2022/07/01 00:41:29;;;;;;;2.03;1.07;;;17.00;33.60;;;;;;5054613;28;20186;-69
2022/07/01 00:43:57;;;;;;;3.53;1.43;;;16.80;35.00;;;;;;5053691;28;20205;-69
2022/07/01 00:46:24;;;;;;;1.83;1.20;;;16.80;35.30;;;;;;5052302;28;20179;-69
2022/07/01 00:48:52;;;;;;;1.97;1.30;;;16.90;34.80;;;;;;5052855;28;20447;-70
2022/07/01 00:51:21;;;;;;;1.67;1.20;;;17.00;31.90;;;;;;5037565;28;20820;-69
2022/07/01 00:53:47;;;;;;;2.30;1.53;;;17.00;31.90;;;;;;5052790;28;20449;-69
2022/07/01 00:56:13;;;;;;;2.07;1.20;;;17.00;33.10;;;;;;5053295;28;20431;-69
2022/07/01 00:58:40;;;;;;;1.60;1.03;;;16.90;33.00;;;;;;5051490;28;20496;-70
2022/07/01 01:01:05;;;;;;;2.10;0.90;;;16.90;32.90;;;;;;5053166;28;20420;-70
2022/07/01 01:03:31;;;;;;;2.80;0.90;;;16.90;32.50;;;;;;5053181;28;20502;-69
2022/07/01 01:05:57;;;;;;;2.03;1.20;;;16.90;33.20;;;;;;5051640;28;20274;-69
2022/07/01 01:08:24;;;;;;;2.07;1.27;;;16.80;30.70;;;;;;5051262;28;20193;-69
2022/07/01 01:10:50;;;;;;;2.00;1.40;;;16.80;31.70;;;;;;5052685;28;20437;-69
2022/07/01 01:13:15;;;;;;;2.07;1.07;;;16.80;31.70;;;;;;5051716;28;20448;-68
2022/07/01 01:15:41;;;;;;;3.00;1.33;;;16.70;31.60;;;;;;5052893;28;20457;-69
2022/07/01 01:18:07;;;;;;;1.90;1.17;;;16.70;32.30;;;;;;5052624;28;20646;-69
2022/07/01 01:20:34;;;;;;;1.50;0.80;;;16.70;31.60;;;;;;5052639;28;20680;-69
2022/07/01 01:23:01;;;;;;;2.13;1.10;;;16.70;31.60;;;;;;5051370;28;20217;-69
2022/07/01 01:25:27;;;;;;;1.50;0.80;;;16.70;31.60;;;;;;5052892;28;20421;-69
2022/07/01 01:27:52;;;;;;;1.83;1.13;;;16.70;32.40;;;;;;5052692;28;20479;-70
2022/07/01 01:30:18;;;;;;;3.10;1.60;;;16.70;31.60;;;;;;5050855;28;20710;-69
2022/07/01 01:32:43;;;;;;;1.60;1.03;;;16.70;31.60;;;;;;5052376;28;20198;-70
2022/07/01 01:35:10;;;;;;;2.10;1.10;;;16.70;31.60;;;;;;5051037;28;20206;-69
2022/07/01 01:37:35;;;;;;;5.30;1.53;;;16.40;30.40;;;;;;5052488;28;20171;-69
2022/07/01 01:40:02;;;;;;;2.50;1.50;;;16.30;32.90;;;;;;5039471;28;21036;-69
2022/07/01 01:42:28;;;;;;;2.07;1.03;;;16.20;32.00;;;;;;5044417;28;20281;-69
2022/07/01 01:44:54;;;;;;;2.60;1.40;;;16.30;32.60;;;;;;5048953;28;20505;-69
2022/07/01 01:47:20;;;;;;;2.83;1.00;;;16.40;33.40;;;;;;5032429;28;20171;-70
2022/07/01 01:49:46;;;;;;;1.83;1.17;;;16.40;31.30;;;;;;5040599;28;20433;-71
2022/07/01 01:52:11;;;;;;;2.17;1.17;;;16.50;31.50;;;;;;5052160;28;20536;-73
2022/07/01 01:54:37;;;;;;;2.53;1.17;;;16.50;32.40;;;;;;5052237;28;20577;-74
2022/07/01 01:57:06;;;;;;;1.80;1.20;;;16.60;31.90;;;;;;5048961;28;20182;-74
2022/07/01 01:59:31;;;;;;;1.60;0.90;;;16.60;31.60;;;;;;5045315;28;20285;-73
2022/07/01 02:01:57;;;;;;;7.73;1.03;;;16.20;31.30;;;;;;5052092;28;20518;-72
2022/07/01 02:04:23;;;;;;;1.50;0.80;;;16.30;33.40;;;;;;5052150;28;20185;-72
2022/07/01 02:06:50;;;;;;;1.90;0.80;;;16.10;32.90;;;;;;5051925;28;20182;-72
2022/07/01 02:09:15;;;;;;;2.77;0.97;;;15.70;34.90;;;;;;5050084;28;20428;-72
2022/07/01 02:11:41;;;;;;;1.60;0.90;;;15.90;35.30;;;;;;5050488;28;20446;-72
2022/07/01 02:14:06;;;;;;;2.80;1.00;;;16.10;33.30;;;;;;5051652;28;20281;-71
2022/07/01 02:16:32;;;;;;;3.07;1.63;;;16.00;34.00;;;;;;5051528;28;20746;-72
2022/07/01 02:18:57;;;;;;;2.73;0.77;;;15.30;35.00;;;;;;5051375;28;20618;-72
2022/07/01 02:21:23;;;;;;;2.07;0.90;;;15.10;36.20;;;;;;5051092;28;20187;-73
2022/07/01 02:23:48;;;;;;;1.70;0.83;;;15.40;37.10;;;;;;5051468;28;20235;-72
2022/07/01 02:26:14;;;;;;;1.60;1.03;;;15.40;37.10;;;;;;5051530;28;20184;-73
2022/07/01 02:28:40;;;;;;;4.10;1.17;;;15.20;37.60;;;;;;5051323;28;20252;-73
2022/07/01 02:31:05;;;;;;;1.70;0.90;;;15.00;39.80;;;;;;5050053;28;20181;-73
2022/07/01 02:33:31;;;;;;;4.07;1.40;;;14.60;43.10;;;;;;5048401;28;20200;-72
2022/07/01 02:35:57;;;;;;;4.03;1.00;;;14.70;44.40;;;;;;5042724;28;20204;-72
2022/07/01 02:38:23;;;;;;;2.07;0.80;;;14.50;44.90;;;;;;5051152;28;20912;-71
2022/07/01 02:40:48;;;;;;;1.97;1.17;;;14.20;44.40;;;;;;5051449;28;20806;-72
2022/07/01 02:43:15;;;;;;;2.87;1.07;;;14.30;45.20;;;;;;5051506;28;20264;-73
2022/07/01 02:45:41;;;;;;;1.63;0.97;;;14.30;46.30;;;;;;5051285;28;20679;-73
2022/07/01 02:48:07;;;;;;;1.80;0.80;;;14.20;45.40;;;;;;5054369;28;20435;-69
2022/07/01 02:50:33;;;;;;;1.90;0.70;;;14.10;44.80;;;;;;5055285;28;20424;-72
2022/07/01 02:52:58;;;;;;;1.83;1.20;;;14.10;45.00;;;;;;5054608;28;20256;-74
2022/07/01 02:55:24;;;;;;;3.63;0.97;;;14.00;42.20;;;;;;5055467;28;20577;-72
2022/07/01 02:57:51;;;;;;;1.40;0.70;;;14.00;43.10;;;;;;5055425;28;20178;-72
2022/07/01 03:00:17;;;;;;;1.53;0.60;;;14.10;45.00;;;;;;5054963;28;20229;-72
2022/07/01 03:02:43;;;;;;;1.50;0.70;;;14.00;42.30;;;;;;5053847;28;20462;-72
2022/07/01 03:05:10;;;;;;;1.80;1.10;;;14.10;43.90;;;;;;5055112;28;20438;-72
2022/07/01 03:07:36;;;;;;;1.40;0.80;;;14.20;43.40;;;;;;5054067;28;20233;-72
2022/07/01 03:10:03;;;;;;;1.70;0.73;;;14.30;41.50;;;;;;5054761;28;20426;-72
2022/07/01 03:12:28;;;;;;;2.57;0.70;;;14.20;40.90;;;;;;5054840;28;20859;-73
2022/07/01 03:14:59;;;;;;;1.67;0.87;;;14.10;43.30;;;;;;5054726;28;20462;-72
2022/07/01 03:17:26;;;;;;;1.83;0.80;;;14.20;42.40;;;;;;5054982;28;20224;-73
2022/07/01 03:19:52;;;;;;;1.70;1.20;;;14.30;42.50;;;;;;5054353;28;20990;-73
2022/07/01 03:22:20;;;;;;;1.73;1.20;;;14.10;42.70;;;;;;5054717;28;20802;-73
2022/07/01 03:24:46;;;;;;;2.20;1.20;;;14.30;43.70;;;;;;5054994;28;20437;-73
2022/07/01 03:27:11;;;;;;;1.70;1.10;;;14.40;41.80;;;;;;5054836;28;20486;-73
2022/07/01 03:29:37;;;;;;;1.80;1.13;;;14.40;41.40;;;;;;5054305;28;20211;-72
2022/07/01 03:32:03;;;;;;;1.83;0.93;;;14.30;41.50;;;;;;5053200;28;20202;-72
2022/07/01 03:34:28;;;;;;;1.60;0.70;;;14.50;41.10;;;;;;5054612;28;20221;-73
2022/07/01 03:36:54;;;;;;;2.80;1.17;;;14.60;40.10;;;;;;5054826;28;20486;-72
2022/07/01 03:39:19;;;;;;;1.97;1.27;;;14.60;40.30;;;;;;5054470;28;20251;-72
2022/07/01 03:41:45;;;;;;;5.83;1.13;;;14.60;40.30;;;;;;5054070;28;20180;-73
2022/07/01 03:44:10;;;;;;;2.50;0.80;;;14.50;39.70;;;;;;5054801;28;20666;-71
2022/07/01 03:46:37;;;;;;;1.50;0.90;;;14.60;39.00;;;;;;5054538;28;20661;-72
2022/07/01 03:49:04;;;;;;;2.23;1.07;;;14.80;38.30;;;;;;5054891;28;20190;-72
2022/07/01 03:51:29;;;;;;;2.53;1.00;;;14.70;37.80;;;;;;5054473;28;20427;-72
2022/07/01 03:56:39;;;;;;;3.37;1.40;;;14.90;38.30;;;;;;5054342;28;20229;-71
2022/07/01 03:59:04;;;;;;;1.53;0.90;;;15.10;39.40;;;;;;5052635;28;20424;-72
2022/07/01 04:01:30;;;;;;;5.40;1.40;;;15.30;38.20;;;;;;5053883;28;20185;-73
2022/07/01 04:03:56;;;;;;;1.90;1.10;;;15.40;35.70;;;;;;5054319;28;20595;-71
2022/07/01 04:06:22;;;;;;;1.77;0.90;;;15.50;36.80;;;;;;5052518;28;20184;-70
2022/07/01 04:08:48;;;;;;;1.20;0.60;;;15.60;35.90;;;;;;5053482;28;20406;-71
2022/07/01 04:11:15;;;;;;;1.67;0.70;;;15.70;36.00;;;;;;5053097;28;20857;-71
2022/07/01 04:13:41;;;;;;;2.53;1.10;;;15.80;36.00;;;;;;5051395;28;20462;-71
2022/07/01 04:16:06;;;;;;;1.70;1.00;;;15.80;35.00;;;;;;5052738;28;20533;-72
2022/07/01 04:18:33;;;;;;;1.87;0.90;;;15.60;34.30;;;;;;5052298;28;20214;-71
2022/07/01 04:23:43;;;;;;;1.90;1.10;;;15.70;36.00;;;;;;5052310;28;20461;-71
2022/07/01 04:26:09;;;;;;;2.00;1.00;;;15.80;35.00;;;;;;5052504;28;20435;-68
2022/07/01 04:28:35;;;;;;;2.27;1.00;;;15.70;35.00;;;;;;5051300;28;20185;-69
2022/07/01 04:31:00;;;;;;;1.80;1.03;;;15.70;35.00;;;;;;5052435;28;20180;-69
2022/07/01 04:33:26;;;;;;;1.70;1.13;;;15.80;35.20;;;;;;5051149;28;20330;-70
2022/07/01 04:35:52;;;;;;;1.70;1.03;;;15.80;35.20;;;;;;5052183;28;20350;-69
2022/07/01 04:38:17;;;;;;;1.63;0.93;;;15.80;35.50;;;;;;5052414;28;20177;-71
2022/07/01 04:41:58;;;;;;;1.97;1.23;;;15.60;34.50;;;;;;5052431;28;20189;-70
2022/07/01 04:43:29;;;;;;;2.63;1.10;;;15.60;35.20;;;;;;5051888;28;20207;-72
2022/07/01 04:45:55;;;;;;;2.97;0.90;;;;;;;;;;5052454;28;20431;-70
2022/07/01 04:48:21;;;;;;;1.70;0.97;;;15.20;54.00;;;;;;5051989;28;20653;-70
2022/07/01 04:50:46;;;;;;;2.67;1.10;;;15.20;40.70;;;;;;5052254;28;20427;-71
2022/07/01 04:53:13;;;;;;;3.30;1.13;;;15.30;37.00;;;;;;5051728;28;20699;-70
2022/07/01 04:55:38;;;;;;;2.47;1.17;;;15.40;37.00;;;;;;5052111;28;20205;-72
2022/07/01 04:58:04;;;;;;;3.00;1.43;;;15.50;37.20;;;;;;5051667;28;20956;-70
2022/07/01 05:00:30;;;;;;;1.90;1.30;;;15.60;37.00;;;;;;5052153;28;20178;-70
2022/07/01 05:02:56;;;;;;;1.80;0.83;;;15.60;35.90;;;;;;5014534;28;1042606;-71
2022/07/01 05:05:21;;;;;;;3.63;1.30;;;15.70;36.20;;;;;;5053469;28;20645;-71
2022/07/01 05:07:47;;;;;;;5.13;1.40;;;;;;;;;;5054549;28;20260;-72
2022/07/01 05:10:13;;;;;;;1.43;0.77;;;15.40;37.10;;;;;;5053485;28;20185;-71
2022/07/01 05:12:38;;;;;;;3.23;1.30;;;15.00;38.00;;;;;;5053735;28;20453;-70
2022/07/01 05:15:05;;;;;;;2.93;1.67;;;;;;;;;;5053054;28;20697;-70
2022/07/01 05:22:58;;;;;;;2.60;1.13;;;14.90;39.10;;;;;;5051214;28;20886;-69
2022/07/01 05:25:24;;;;;;;2.03;1.43;;;15.10;38.80;;;;;;5052449;28;20466;-68
2022/07/01 05:27:50;;;;;;;2.47;1.23;;;;;;;;;;5052717;28;20272;-68
2022/07/01 05:30:15;;;;;;;3.80;2.87;;;15.20;37.20;;;;;;5052077;28;20195;-68
2022/07/01 05:32:41;;;;;;;1.43;0.77;;;15.30;37.90;;;;;;5052647;28;20446;-68
2022/07/01 05:35:07;;;;;;;4.43;1.10;;;15.50;39.20;;;;;;5052553;28;20706;-67
2022/07/01 05:37:32;;;;;;;1.93;0.83;;;15.50;37.50;;;;;;5052472;28;20181;-69
2022/07/01 05:39:58;;;;;;;1.73;1.20;;;15.50;35.40;;;;;;5052249;28;20565;-69
2022/07/01 05:42:23;;;;;;;1.80;0.70;;;15.40;36.20;;;;;;5052501;28;20206;-68
2022/07/01 05:44:49;;;;;;;2.67;0.80;;;15.20;36.80;;;;;;5052523;28;20189;-69
2022/07/01 05:47:15;;;;;;;1.60;0.80;;;15.30;37.30;;;;;;5052183;28;20671;-69
2022/07/01 05:49:40;;;;;;;4.67;1.20;;;15.40;37.30;;;;;;5051921;28;20182;-69
2022/07/01 05:52:06;;;;;;;1.30;0.80;;;15.60;37.30;;;;;;5052123;28;20216;-68
2022/07/01 05:54:32;;;;;;;2.07;0.93;;;15.60;37.90;;;;;;5050915;28;20224;-68
2022/07/01 05:56:57;;;;;;;1.70;0.80;;;15.80;49.10;;;;;;5051947;28;20771;-68
2022/07/01 05:59:23;;;;;;;1.43;0.70;;;15.80;47.90;;;;;;5051936;28;20177;-68
2022/07/01 06:01:50;;;;;;;2.17;1.10;;;15.80;35.40;;;;;;5052093;28;20717;-69
2022/07/01 06:04:16;;;;;;;2.33;0.83;;;15.80;35.80;;;;;;5052235;28;20198;-70
2022/07/01 06:06:42;;;;;;;2.17;1.23;;;15.90;34.70;;;;;;5052488;28;20439;-69
2022/07/01 06:09:08;;;;;;;2.30;1.03;;;15.90;34.40;;;;;;5050759;28;20424;-68
2022/07/01 06:11:33;;;;;;;1.70;0.80;;;16.10;33.30;;;;;;5052282;28;20630;-70
2022/07/01 06:13:59;;;;;;;1.40;0.70;;;16.10;33.40;;;;;;5052799;28;20178;-69
2022/07/01 06:16:25;;;;;;;1.80;0.80;;;15.90;32.90;;;;;;5051706;28;20171;-70
2022/07/01 06:18:50;;;;;;;3.13;1.53;;;16.00;33.30;;;;;;5051916;28;20170;-68
2022/07/01 06:21:16;;;;;;;2.00;1.33;;;16.00;33.60;;;;;;5051116;28;20565;-69
2022/07/01 06:23:42;;;;;;;1.50;0.90;;;15.80;33.30;;;;;;5051973;28;20730;-68
2022/07/01 06:26:08;;;;;;;1.40;0.80;;;15.80;33.90;;;;;;5051867;28;20589;-68
2022/07/01 06:28:33;;;;;;;1.40;0.73;;;15.90;33.30;;;;;;5050282;28;20556;-68
2022/07/01 06:30:59;;;;;;;1.70;0.83;;;16.00;31.90;;;;;;5051878;28;20668;-68
2022/07/01 06:33:27;;;;;;;1.50;0.90;;;15.80;32.50;;;;;;5051736;28;20201;-67
2022/07/01 06:35:52;;;;;;;3.60;0.83;;;15.80;31.80;;;;;;5051570;28;20652;-69
2022/07/01 06:38:18;;;;;;;1.57;0.90;;;15.90;33.70;;;;;;5051236;28;20429;-69
2022/07/01 06:41:26;;;;;;;1.40;0.80;;;15.90;33.70;;;;;;5051776;28;20174;-69
2022/07/01 06:43:29;;;;;;;2.33;1.67;;;16.00;33.30;;;;;;5051632;28;20472;-69
2022/07/01 06:45:54;;;;;;;2.70;0.97;;;16.20;36.50;;;;;;5050359;28;20520;-68
2022/07/01 06:48:20;;;;;;;1.73;0.97;;;16.40;33.10;;;;;;5047733;28;20229;-69
2022/07/01 06:50:45;;;;;;;4.13;2.70;;;16.60;31.90;;;;;;5047604;28;20193;-69
2022/07/01 06:53:11;;;;;;;2.07;1.70;;;16.70;29.90;;;;;;5050147;28;20219;-69
2022/07/01 06:55:36;;;;;;;1.57;1.17;;;16.70;30.90;;;;;;5062849;28;20384;-69
2022/07/01 06:58:04;;;;;;;4.43;1.70;;;16.70;29.80;;;;;;5047582;28;20197;-69
2022/07/01 07:00:29;;;;;;;1.50;0.70;;;16.60;30.40;;;;;;5044555;28;20653;-69
2022/07/01 07:02:55;;;;;;;1.50;0.90;;;16.60;31.00;;;;;;5048051;28;20441;-68
2022/07/01 07:05:22;;;;;;;1.50;0.87;;;16.70;30.80;;;;;;5046899;28;20193;-69
2022/07/01 07:07:48;;;;;;;5.40;1.97;;;16.70;30.80;;;;;;5047393;28;20662;-69
2022/07/01 07:10:13;;;;;;;2.17;1.10;;;16.80;29.50;;;;;;5047509;28;20421;-69
2022/07/01 07:12:39;;;;;;;2.20;1.17;;;16.80;29.80;;;;;;5047122;28;20217;-67
2022/07/01 07:15:05;;;;;;;1.97;1.07;;;16.50;28.80;;;;;;5046863;28;20214;-71
2022/07/01 07:17:31;;;;;;;1.93;1.10;;;16.50;30.60;;;;;;5047851;28;20469;-68
2022/07/01 07:19:56;;;;;;;1.60;0.93;;;16.70;30.10;;;;;;5046832;28;20457;-68
2022/07/01 07:22:23;;;;;;;1.47;0.80;;;16.70;29.60;;;;;;5046332;28;20202;-69
2022/07/01 07:24:49;;;;;;;10.50;2.10;;;16.70;29.40;;;;;;5047229;28;20320;-69
2022/07/01 07:27:14;;;;;;;4.40;1.93;;;16.70;29.50;;;;;;5046561;28;20512;-69
2022/07/01 07:29:40;;;;;;;2.70;1.50;;;16.60;29.90;;;;;;5046215;28;20816;-67
2022/07/01 07:32:06;;;;;;;2.00;1.13;;;16.30;30.00;;;;;;5047722;28;20205;-67
2022/07/01 07:34:31;;;;;;;2.03;0.70;;;16.00;32.80;;;;;;5050306;28;20699;-67
2022/07/01 07:36:57;;;;;;;1.87;0.90;;;16.00;31.70;;;;;;5050236;28;20482;-67
2022/07/01 07:39:22;;;;;;;2.90;1.33;;;16.20;31.20;;;;;;5050623;28;20186;-67
2022/07/01 07:41:49;;;;;;;2.80;1.63;;;15.70;30.70;;;;;;5036379;28;20647;-67
2022/07/01 07:44:15;;;;;;;1.57;0.93;;;15.80;30.80;;;;;;5049674;28;20672;-67
2022/07/01 07:46:40;;;;;;;1.40;0.70;;;15.30;30.30;;;;;;5042963;28;20579;-67
2022/07/01 07:49:06;;;;;;;1.50;0.70;;;15.10;32.30;;;;;;5055312;28;20698;-67
2022/07/01 07:51:34;;;;;;;2.00;1.00;;;15.10;35.50;;;;;;5055225;28;20184;-67
2022/07/01 07:54:02;;;;;;;2.80;1.43;;;14.90;35.30;;;;;;5050602;28;20204;-67
2022/07/01 07:56:28;;;;;;;2.70;0.90;;;14.70;39.00;;;;;;5050278;28;20427;-67
2022/07/01 07:58:53;;;;;;;1.60;0.60;;;14.90;38.90;;;;;;5042433;28;20422;-67
2022/07/01 08:01:19;;;;;;;1.63;0.60;;;14.90;36.50;;;;;;5057979;28;20915;-68
2022/07/01 08:03:45;;;;;;;2.97;1.10;;;15.10;37.40;;;;;;5048544;28;20221;-66
2022/07/01 08:06:11;;;;;;;3.20;1.00;;;15.50;35.80;;;;;;5056625;28;20481;-69
2022/07/01 08:08:39;;;;;;;1.50;0.60;;;15.20;33.70;;;;;;5059700;28;20448;-68
2022/07/01 08:11:05;;;;;;;1.40;0.73;;;15.20;33.60;;;;;;5056210;28;20696;-67
2022/07/01 08:13:34;;;;;;;1.50;0.60;;;15.20;37.10;;;;;;5065165;28;20777;-67
2022/07/01 08:16:01;;;;;;;2.20;1.50;;;15.50;35.90;;;;;;5055704;28;20529;-68
2022/07/01 08:18:27;;;;;;;2.07;0.80;;;15.50;34.60;;;;;;5053546;28;20504;-66
2022/07/01 08:20:53;;;;;;;1.90;0.80;;;15.50;30.50;;;;;;5053610;28;20954;-70
2022/07/01 08:23:22;;;;;;;1.40;0.80;;;15.70;32.00;;;;;;5053814;28;20209;-67
2022/07/01 08:25:49;;;;;;;2.07;0.80;;;15.70;31.10;;;;;;5061071;28;20207;-67
2022/07/01 08:28:14;;;;;;;3.43;3.10;;;16.00;32.50;;;;;;5072688;28;20431;-66
2022/07/01 08:30:40;;;;;;;1.40;0.87;;;16.10;32.30;;;;;;5058350;28;20450;-67
2022/07/01 08:33:11;;;;;;;1.80;1.20;;;16.20;29.70;;;;;;5053977;28;20292;-67
2022/07/01 08:35:37;;;;;;;1.83;0.90;;;16.20;30.30;;;;;;5049592;28;20225;-66
2022/07/01 08:38:04;;;;;;;1.50;0.80;;;16.00;30.10;;;;;;5053278;28;20919;-67
2022/07/01 08:40:34;;;;;;;4.80;1.33;;;16.10;29.60;;;;;;5053416;28;20181;-66
2022/07/01 08:43:02;;;;;;;1.70;0.97;;;16.20;29.10;;;;;;5053717;28;20432;-66
2022/07/01 08:45:33;;;;;;;1.70;1.03;;;16.20;29.60;;;;;;5052269;28;20440;-67
2022/07/01 08:48:00;;;;;;;2.13;1.00;;;16.20;28.40;;;;;;5053127;28;20921;-67
2022/07/01 08:50:30;;;;;;;1.83;1.07;;;16.10;29.70;;;;;;5053467;28;20436;-68
2022/07/01 08:52:56;;;;;;;1.50;1.03;;;16.00;27.70;;;;;;5052901;28;20492;-67
2022/07/01 08:55:23;;;;;;;2.10;1.20;;;16.10;28.30;;;;;;5052851;28;20468;-66
2022/07/01 08:57:48;;;;;;;1.70;1.20;;;16.10;28.40;;;;;;5053190;28;20416;-67
2022/07/01 09:00:15;;;;;;;2.00;1.60;;;16.20;28.60;;;;;;5052522;28;20585;-68
2022/07/01 09:03:02;;;;;;;1.50;0.90;;;16.30;29.00;;;;;;5051049;28;20229;-67
2022/07/01 09:05:31;;;;;;;2.47;0.97;;;16.40;28.60;;;;;;5052891;28;20830;-68
2022/07/01 09:08:04;;;;;;;3.40;1.30;;;16.50;27.90;;;;;;5052823;28;20420;-68
2022/07/01 09:10:33;;;;;;;1.90;1.00;;;16.60;28.00;;;;;;5052795;28;20515;-68
2022/07/01 09:13:08;;;;;;;1.80;1.23;;;16.70;27.60;;;;;;5052487;28;20463;-68
2022/07/01 09:15:35;;;;;;;4.83;1.60;;;16.70;27.20;;;;;;5052931;28;20470;-68
2022/07/01 09:18:14;;;;;;;1.77;1.20;;;16.70;27.20;;;;;;5052805;28;20420;-68
2022/07/01 09:20:42;;;;;;;4.13;1.37;;;16.70;27.20;;;;;;5052576;28;20419;-69
2022/07/01 09:23:10;;;;;;;1.97;1.40;;;16.80;27.70;;;;;;5052103;28;20854;-68
2022/07/01 09:25:39;;;;;;;2.50;1.80;;;16.90;27.90;;;;;;5051447;28;20904;-68
2022/07/01 09:28:07;;;;;;;2.17;1.77;;;16.90;25.70;;;;;;5051559;28;20416;-67
2022/07/01 09:30:33;;;;;;;3.60;2.63;;;16.80;26.70;;;;;;5053273;28;20551;-68
2022/07/01 09:33:06;;;;;;;3.37;2.00;;;16.80;26.10;;;;;;5063202;28;20531;-69
2022/07/01 09:35:32;;;;;;;1.50;1.13;;;16.40;25.60;;;;;;5063031;28;20214;-68
2022/07/01 09:37:58;;;;;;;1.70;1.20;;;16.00;27.10;;;;;;5066448;28;20424;-67
2022/07/01 09:40:23;;;;;;;1.73;1.30;;;15.90;26.60;;;;;;5072231;28;20772;-67
2022/07/01 09:42:50;;;;;;;1.70;1.40;;;15.90;26.60;;;;;;5072478;28;20259;-67
2022/07/01 09:45:16;;;;;;;2.37;1.37;;;16.00;26.70;;;;;;5070689;28;20219;-67
2022/07/01 09:47:45;;;;;;;1.80;0.90;;;15.60;29.00;;;;;;5051221;28;20464;-67
2022/07/01 09:50:11;;;;;;;2.33;1.20;;;15.70;29.70;;;;;;5051445;28;20221;-67
2022/07/01 09:52:37;;;;;;;3.17;1.33;;;15.50;30.50;;;;;;5051135;28;20476;-67
2022/07/01 09:55:07;;;;;;;1.77;1.10;;;15.80;30.80;;;;;;5056093;28;20799;-67
2022/07/01 09:57:33;;;;;;;1.70;1.20;;;16.20;29.40;;;;;;5050753;28;20431;-68
2022/07/01 09:59:59;;;;;;;1.43;0.97;;;16.40;28.10;;;;;;5051842;28;20463;-68
2022/07/01 10:02:31;;;;;;;2.73;1.10;;;16.30;28.10;;;;;;5052437;28;20500;-67
2022/07/01 10:05:00;;;;;;;1.60;1.10;;;16.40;27.80;;;;;;5052207;28;20210;-67
2022/07/01 10:07:28;;;;;;;1.77;0.97;;;16.40;28.30;;;;;;5052021;28;20431;-67
2022/07/01 10:10:32;;;;;;;1.47;0.93;;;16.00;27.00;;;;;;5051560;28;20941;-68
2022/07/01 10:13:01;;;;;;;1.50;0.80;;;16.30;27.60;;;;;;4990606;28;20494;-67
2022/07/01 10:15:28;;;;;;;1.80;1.10;;;16.60;28.30;;;;;;5042002;28;20470;-67
2022/07/01 10:17:53;;;;;;;6.40;1.53;;;16.90;27.50;;;;;;5052075;28;20982;-67
2022/07/01 10:20:24;;;;;;;1.70;1.40;;;17.30;26.90;;;;;;5051632;28;20421;-67
2022/07/01 10:22:50;;;;;;;3.07;2.87;;;17.60;25.40;;;;;;5052081;28;20557;-67
2022/07/01 10:25:41;;;;;;;2.53;2.33;;;17.90;22.80;;;;;;5051935;28;20409;-67
2022/07/01 10:28:25;;;;;;;2.70;2.50;;;18.20;23.50;;;;;;5051500;28;20409;-68
2022/07/01 10:31:03;;;;;;;2.90;2.70;;;18.00;23.20;;;;;;5051466;28;20429;-68
2022/07/01 10:33:40;;;;;;;3.83;3.43;;;18.30;23.00;;;;;;5051899;28;20449;-69
2022/07/01 10:36:10;;;;;;;3.60;3.40;;;18.50;21.70;;;;;;5051463;28;20471;-68
2022/07/01 10:41:39;;;;;;;3.77;3.47;;;18.70;20.80;;;;;;5051313;28;20418;-67
2022/07/01 10:44:13;;;;;;;3.90;3.67;;;18.50;22.20;;;;;;5052201;28;20497;-68
2022/07/01 10:46:59;;;;;;;3.03;2.83;;;18.50;21.80;;;;;;5052264;28;20404;-67
2022/07/01 10:49:36;;;;;;;4.10;3.27;;;17.80;22.10;;;;;;5049899;28;20950;-68
2022/07/01 10:52:07;;;;;;;3.20;3.00;;;18.00;22.40;;;;;;5050961;28;20437;-69
2022/07/01 10:54:35;;;;;;;3.10;2.90;;;18.10;22.10;;;;;;5051377;28;20456;-71
2022/07/01 10:57:19;;;;;;;3.53;3.33;;;18.20;21.90;;;;;;5051624;28;20471;-68
2022/07/01 11:00:00;;;;;;;2.97;2.77;;;18.20;21.50;;;;;;5052547;28;20409;-69
2022/07/01 11:02:30;;;;;;;3.70;3.50;;;18.30;21.80;;;;;;5047831;28;20475;-68
2022/07/01 11:05:04;;;;;;;3.37;3.17;;;18.30;21.70;;;;;;5051498;28;20914;-69
2022/07/01 11:07:32;;;;;;;4.57;4.17;;;18.40;21.60;;;;;;5052606;28;20466;-69
2022/07/01 11:09:59;;;;;;;3.60;3.40;;;18.40;21.00;;;;;;5056112;28;20413;-69
2022/07/01 11:12:28;;;;;;;3.77;3.57;;;18.50;20.30;;;;;;5056369;28;20814;-69
2022/07/01 11:14:57;;;;;;;4.67;4.47;;;18.80;20.10;;;;;;5056530;28;20465;-68
2022/07/01 11:17:23;;;;;;;4.43;4.23;;;18.90;20.20;;;;;;5056603;28;20475;-69
2022/07/01 11:19:50;;;;;;;4.90;4.50;;;18.80;20.10;;;;;;5056043;28;20405;-68
2022/07/01 11:22:21;;;;;;;4.40;4.20;;;19.10;20.50;;;;;;5055030;28;20568;-69
2022/07/01 11:24:52;;;;;;;5.27;5.07;;;19.30;21.10;;;;;;5056071;28;20417;-69
2022/07/01 11:27:17;;;;;;;6.17;5.87;;;19.70;18.90;;;;;;5056362;28;20437;-69
2022/07/01 11:29:43;;;;;;;6.40;6.10;;;19.90;18.80;;;;;;5055541;28;20834;-69
2022/07/01 11:32:08;;;;;;;6.63;6.23;;;19.80;18.30;;;;;;5055850;28;20251;-69
2022/07/01 11:34:36;;;;;;;6.67;6.37;;;20.00;18.60;;;;;;5055799;28;20234;-68
2022/07/01 11:40:11;;;;;;;8.73;8.33;;;20.60;17.00;;;;;;5055713;28;20767;-69
2022/07/01 11:42:37;;;;;;;9.20;8.70;;;21.10;14.50;;;;;;5054839;28;20436;-69
2022/07/01 11:45:04;;;;;;;9.30;8.90;;;21.50;14.50;;;;;;5055848;28;20424;-69
2022/07/01 11:47:29;;;;;;;9.20;8.80;;;21.90;13.90;;;;;;5055535;28;20477;-69
2022/07/01 11:49:56;;;;;;;9.40;9.00;;;22.00;13.30;;;;;;5054768;28;20433;-69
2022/07/01 11:52:23;;;;;;;13.47;12.60;;;22.30;14.00;;;;;;5055335;28;20205;-68
2022/07/01 11:54:54;;;;;;;13.97;12.97;;;22.40;12.30;;;;;;5054822;28;20464;-68
2022/07/01 11:57:22;;;;;;;12.53;11.83;;;22.50;12.30;;;;;;5055236;28;20401;-69
2022/07/01 11:59:49;;;;;;;14.30;13.50;;;22.80;12.10;;;;;;5055288;28;20440;-68
2022/07/01 12:02:17;;;;;;;12.67;12.07;;;23.10;10.70;;;;;;5054599;28;20506;-69
2022/07/01 12:04:43;;;;;;;12.27;11.77;;;23.50;11.40;;;;;;5055385;28;20447;-69
2022/07/01 12:07:10;;;;;;;11.73;11.33;;;23.90;10.20;;;;;;5055241;28;20922;-69
2022/07/01 12:09:36;;;;;;;11.93;11.53;;;23.90;10.30;;;;;;5054551;28;20409;-68
2022/07/01 12:12:03;;;;;;;12.93;11.70;;;23.90;9.50;;;;;;5051509;28;21049;-70
2022/07/01 12:14:32;;;;;;;12.20;11.60;;;23.90;9.70;;;;;;5050587;28;20487;-71
2022/07/01 12:17:04;;;;;;;13.07;12.37;;;24.20;9.50;;;;;;5050495;28;20425;-70
2022/07/01 12:19:35;;;;;;;12.27;11.77;;;24.30;10.10;;;;;;5049489;28;20409;-74
2022/07/01 12:22:01;;;;;;;11.60;11.20;;;24.40;9.40;;;;;;5051128;28;20808;-70
2022/07/01 12:24:27;;;;;;;12.47;11.90;;;24.60;8.60;;;;;;5059234;28;20420;-70
2022/07/01 12:26:58;;;;;;;12.60;12.10;;;24.80;9.20;;;;;;5070735;28;20197;-69
2022/07/01 12:29:27;;;;;;;11.83;11.43;;;24.90;9.00;;;;;;5070832;28;20865;-70
2022/07/01 12:31:59;;;;;;;13.03;12.43;;;25.00;7.90;;;;;;5071112;28;20821;-70
2022/07/01 12:35:04;;;;;;;12.67;12.17;;;25.20;8.50;;;;;;5068314;28;20845;-71
2022/07/01 12:37:32;;;;;;;12.70;12.20;;;25.30;7.10;;;;;;5066987;28;20428;-69
2022/07/01 12:40:05;;;;;;;13.60;12.20;;;25.40;6.60;;;;;;5069976;28;20417;-70
2022/07/01 12:42:38;;;;;;;13.00;12.47;;;25.50;6.00;;;;;;5070566;28;20443;-71
2022/07/01 12:45:07;;;;;;;12.93;12.43;;;25.40;6.30;;;;;;5055183;28;20449;-72
2022/07/01 12:47:46;;;;;;;12.63;12.13;;;25.40;6.90;;;;;;5036329;28;20769;-72
2022/07/01 12:50:24;;;;;;;12.60;12.10;;;25.50;6.70;;;;;;5030124;28;20422;-71
2022/07/01 12:53:19;;;;;;;12.57;12.07;;;25.40;5.30;;;;;;5041006;28;20507;-73
2022/07/01 12:55:50;;;;;;;12.57;12.07;;;25.30;6.50;;;;;;5046265;28;20523;-70
2022/07/01 12:58:18;;;;;;;12.57;12.17;;;25.30;6.50;;;;;;5048305;28;20858;-70
2022/07/01 13:00:46;;;;;;;12.97;12.37;;;25.30;5.00;;;;;;5060793;28;20519;-71
2022/07/01 13:03:12;;;;;;;13.13;12.53;;;24.30;5.50;;;;;;5056040;28;20530;-69
2022/07/01 13:05:41;;;;;;;12.20;11.70;;;24.40;7.40;;;;;;5038106;28;20434;-69